Time;durP1;ratioP1;P1;durP2;ratioP2;P2;SDS_P1;SDS_P2;PMS_P1;PMS_P2;Temp;Humidity;BMP_temperature;BMP_pressure;BME280_temperature;BME280_humidity;BME280_pressure;Samples;Min_cycle;Max_cycle;Signal;HPM_P1;HPM_P2
2022/09/29 00:02:16;;;;;;;19.80;10.60;;;;;;;5.92;100.00;98168.99;104544;1274;68010;-81
2022/09/29 00:05:06;;;;;;;18.80;9.80;;;;;;;5.96;100.00;98165.83;104621;1274;72613;-80
2022/09/29 00:07:54;;;;;;;17.60;9.50;;;;;;;5.99;100.00;98166.95;104534;1274;59736;-80
2022/09/29 00:10:42;;;;;;;18.30;10.20;;;;;;;6.02;100.00;98167.05;104582;1274;59538;-78
2022/09/29 00:13:31;;;;;;;19.10;10.60;;;;;;;6.06;100.00;98170.89;104775;1274;73084;-81
2022/09/29 00:16:19;;;;;;;17.50;10.50;;;;;;;6.10;100.00;98174.61;104626;1274;68182;-81
2022/09/29 00:19:07;;;;;;;22.10;10.60;;;;;;;6.13;100.00;98172.17;104791;1274;72916;-81
2022/09/29 00:21:56;;;;;;;18.60;10.30;;;;;;;6.18;100.00;98173.97;104541;1274;59854;-79
2022/09/29 00:24:46;;;;;;;19.70;10.60;;;;;;;6.20;100.00;98171.95;104771;1271;62836;-81
2022/09/29 00:27:34;;;;;;;18.60;9.70;;;;;;;6.25;100.00;98175.09;104883;1274;73054;-80
2022/09/29 00:30:23;;;;;;;19.70;9.20;;;;;;;6.27;100.00;98173.41;104873;1274;68560;-82
2022/09/29 00:33:11;;;;;;;15.80;9.10;;;;;;;6.30;100.00;98172.70;104602;1274;71984;-83
2022/09/29 00:36:04;;;;;;;17.20;8.80;;;;;;;6.32;100.00;98175.66;104849;1274;61660;-81
2022/09/29 00:38:52;;;;;;;16.50;8.70;;;;;;;6.34;100.00;98174.28;104880;1274;59836;-80
2022/09/29 00:41:42;;;;;;;16.50;8.50;;;;;;;6.35;100.00;98176.80;104879;1274;73354;-80
2022/09/29 00:45:04;;;;;;;15.90;9.10;;;;;;;6.33;100.00;98177.67;104977;1274;69563;-79
2022/09/29 00:48:04;;;;;;;15.00;8.30;;;;;;;6.29;100.00;98176.80;105179;1274;73655;-79
2022/09/29 00:50:55;;;;;;;15.50;8.90;;;;;;;6.24;100.00;98176.33;107375;1273;58014;-80
2022/09/29 00:53:43;;;;;;;17.00;8.50;;;;;;;6.19;100.00;98178.11;105190;1274;59545;-79
2022/09/29 00:56:33;;;;;;;18.70;9.10;;;;;;;6.12;100.00;98173.93;104948;1274;74544;-80
2022/09/29 00:59:37;;;;;;;22.60;10.80;;;;;;;6.07;99.98;98175.75;105207;1274;65552;-80
2022/09/29 01:02:26;;;;;;;17.40;9.20;;;;;;;6.06;100.00;98177.48;105200;1274;72890;-79
2022/09/29 01:05:24;;;;;;;17.10;9.40;;;;;;;6.06;100.00;98182.40;104993;1274;59688;-81
2022/09/29 01:08:25;;;;;;;16.50;9.30;;;;;;;6.06;100.00;98178.84;104887;1274;59708;-81
2022/09/29 01:11:15;;;;;;;16.40;9.40;;;;;;;6.07;100.00;98178.77;105010;1274;74139;-79
2022/09/29 01:14:08;;;;;;;16.40;9.60;;;;;;;6.08;100.00;98180.13;105180;1274;191413;-79
2022/09/29 01:16:56;;;;;;;18.50;9.50;;;;;;;6.08;100.00;98181.63;105049;1274;73443;-78
2022/09/29 01:20:03;;;;;;;15.90;9.30;;;;;;;6.11;100.00;98183.18;105004;1274;60315;-78
2022/09/29 01:23:10;;;;;;;14.40;8.50;;;;;;;6.12;100.00;98182.38;105175;1273;61085;-79
2022/09/29 01:26:17;;;;;;;14.40;8.40;;;;;;;6.14;100.00;98183.58;104917;1272;73105;-78
2022/09/29 01:29:35;;;;;;;13.70;7.20;;;;;;;6.18;100.00;98184.89;105228;1274;67821;-79
2022/09/29 01:33:03;;;;;;;13.70;7.60;;;;;;;6.21;100.00;98184.42;104883;1274;73336;-79
2022/09/29 01:36:07;;;;;;;12.60;6.70;;;;;;;6.22;100.00;98182.52;104991;1274;59981;-79
2022/09/29 01:39:25;;;;;;;14.30;7.70;;;;;;;6.23;100.00;98183.02;105183;1273;60847;-79
2022/09/29 01:42:42;;;;;;;13.90;7.50;;;;;;;6.24;100.00;98190.65;104934;1272;73230;-79
2022/09/29 01:45:43;;;;;;;12.70;7.40;;;;;;;6.27;100.00;98188.98;104973;1274;66852;-81
2022/09/29 01:48:37;;;;;;;13.70;7.10;;;;;;;6.32;100.00;98185.02;105138;1274;73764;-78
2022/09/29 01:51:40;;;;;;;12.60;6.70;;;;;;;6.36;100.00;98182.48;104927;1274;59864;-77
2022/09/29 01:54:45;;;;;;;11.70;7.00;;;;;;;6.41;100.00;98184.89;105341;1274;59583;-78
2022/09/29 01:57:56;;;;;;;10.90;6.20;;;;;;;6.46;100.00;98185.63;105079;1274;72521;-78
2022/09/29 02:00:54;;;;;;;12.70;7.20;;;;;;;6.52;100.00;98190.61;105073;1274;68148;-79
2022/09/29 02:03:49;;;;;;;11.50;6.40;;;;;;;6.57;100.00;98188.80;105032;1274;72770;-79
2022/09/29 02:06:48;;;;;;;10.40;5.70;;;;;;;6.61;100.00;98186.65;104824;1273;59794;-79
2022/09/29 02:09:46;;;;;;;10.90;6.10;;;;;;;6.61;100.00;98184.46;105002;1274;60396;-79
2022/09/29 02:12:37;;;;;;;10.60;6.30;;;;;;;6.61;100.00;98187.83;104999;1274;72194;-81
2022/09/29 02:15:33;;;;;;;11.70;5.60;;;;;;;6.61;100.00;98187.65;105079;1274;68004;-78
2022/09/29 02:18:27;;;;;;;11.90;5.90;;;;;;;6.61;100.00;98185.71;105049;1274;71513;-80
2022/09/29 02:21:18;;;;;;;10.20;5.60;;;;;;;6.62;100.00;98184.43;105357;1274;59660;-78
2022/09/29 02:24:06;;;;;;;11.10;5.80;;;;;;;6.60;100.00;98185.28;104907;1274;59759;-77
2022/09/29 02:26:55;;;;;;;12.20;6.70;;;;;;;6.58;100.00;98183.73;104844;1274;73373;-77
2022/09/29 02:29:43;;;;;;;12.30;6.30;;;;;;;6.57;100.00;98184.19;104915;1273;68084;-78
2022/09/29 02:32:34;;;;;;;10.90;6.20;;;;;;;6.55;100.00;98182.95;104827;1272;73026;-79
2022/09/29 02:35:28;;;;;;;12.70;6.50;;;;;;;6.53;100.00;98183.09;104841;1274;60476;-78
2022/09/29 02:38:47;;;;;;;13.20;6.20;;;;;;;6.51;100.00;98186.82;105045;1274;59759;-79
2022/09/29 02:41:53;;;;;;;11.40;6.80;;;;;;;6.47;100.00;98188.52;104891;1274;73785;-80
2022/09/29 02:45:21;;;;;;;11.90;6.50;;;;;;;6.46;100.00;98194.80;104905;1274;66806;-78
2022/09/29 02:49:00;;;;;;;12.70;6.90;;;;;;;6.45;100.00;98192.97;105202;1274;72705;-79
2022/09/29 02:52:19;;;;;;;12.20;6.60;;;;;;;6.45;100.00;98196.45;105094;1273;60827;-78
2022/09/29 02:55:13;;;;;;;11.90;7.00;;;;;;;6.45;100.00;98199.48;105282;1274;61992;-83
2022/09/29 02:58:14;;;;;;;12.40;7.50;;;;;;;6.46;100.00;98198.87;104945;1274;71504;-79
2022/09/29 03:01:04;;;;;;;12.60;7.40;;;;;;;6.48;100.00;98198.86;105115;1274;66911;-79
2022/09/29 03:03:53;;;;;;;14.50;7.10;;;;;;;6.53;100.00;98200.07;104411;1274;1003087;-79
2022/09/29 03:06:41;;;;;;;12.60;6.90;;;;;;;6.57;100.00;98199.67;105146;1274;59660;-80
2022/09/29 03:09:32;;;;;;;11.60;6.40;;;;;;;6.62;100.00;98205.18;104903;1274;60319;-80
2022/09/29 03:12:20;;;;;;;11.20;6.30;;;;;;;6.67;100.00;98204.63;104909;1274;72318;-80
2022/09/29 03:15:12;;;;;;;10.20;6.20;;;;;;;6.73;100.00;98211.08;105045;1274;66703;-82
2022/09/29 03:18:03;;;;;;;9.70;5.40;;;;;;;6.77;100.00;98213.34;105022;1274;72892;-79
2022/09/29 03:20:57;;;;;;;11.60;6.80;;;;;;;6.79;100.00;98216.48;104899;1274;59835;-79
2022/09/29 03:23:45;;;;;;;11.70;6.40;;;;;;;6.81;99.98;98214.02;104815;1274;60493;-80
2022/09/29 03:26:33;;;;;;;13.50;6.20;;;;;;;6.83;99.92;98216.33;104881;1274;73463;-79
2022/09/29 03:29:22;;;;;;;11.30;6.90;;;;;;;6.85;99.75;98217.23;104799;1274;67893;-80
2022/09/29 03:32:11;;;;;;;11.40;5.50;;;;;;;6.88;99.70;98219.27;104927;1274;72956;-79
2022/09/29 03:34:59;;;;;;;10.70;6.10;;;;;;;6.90;99.63;98219.27;104942;1274;60307;-78
2022/09/29 03:37:47;;;;;;;9.60;5.60;;;;;;;6.93;99.56;98216.52;105055;1274;59683;-79
2022/09/29 03:40:36;;;;;;;10.40;6.10;;;;;;;6.95;99.28;98220.35;104978;1274;74943;-78
2022/09/29 03:43:24;;;;;;;9.30;5.30;;;;;;;6.98;99.27;98222.91;104906;1274;66880;-78
2022/09/29 03:46:12;;;;;;;12.70;5.70;;;;;;;6.98;98.91;98220.11;105005;1274;72932;-78
2022/09/29 03:49:00;;;;;;;9.20;5.30;;;;;;;6.93;98.78;98222.30;105094;1274;59700;-78
2022/09/29 03:51:49;;;;;;;9.60;5.90;;;;;;;6.89;98.75;98224.76;106334;1274;59643;-78
2022/09/29 03:54:37;;;;;;;10.70;6.00;;;;;;;6.87;98.91;98225.54;105955;1274;72632;-78
2022/09/29 03:57:26;;;;;;;10.20;5.90;;;;;;;6.85;98.89;98225.85;105122;1274;66557;-77
2022/09/29 04:00:15;;;;;;;10.10;6.00;;;;;;;6.84;98.77;98225.09;104963;1274;71196;-78
2022/09/29 04:03:05;;;;;;;10.90;6.30;;;;;;;6.81;98.69;98227.44;104785;1274;60667;-77
2022/09/29 04:05:54;;;;;;;12.10;6.50;;;;;;;6.81;98.90;98229.39;104781;1274;59864;-77
2022/09/29 04:08:42;;;;;;;10.10;5.90;;;;;;;6.78;98.78;98231.65;104807;1274;70953;-78
2022/09/29 04:11:31;;;;;;;11.00;6.40;;;;;;;6.75;98.99;98232.09;104950;1274;67551;-81
2022/09/29 04:14:19;;;;;;;11.00;6.20;;;;;;;6.72;99.08;98233.72;104968;1274;73269;-81
2022/09/29 04:17:07;;;;;;;16.60;7.20;;;;;;;6.69;98.95;98239.08;104814;1274;59651;-81
2022/09/29 04:19:55;;;;;;;15.50;6.70;;;;;;;6.66;99.25;98242.39;105093;1274;60556;-80
2022/09/29 04:22:43;;;;;;;12.30;6.30;;;;;;;6.64;99.27;98240.30;105399;1274;73219;-81
2022/09/29 04:25:32;;;;;;;13.30;6.60;;;;;;;6.63;99.25;98244.05;104719;1272;68088;-81
2022/09/29 04:28:21;;;;;;;12.30;6.70;;;;;;;6.60;99.17;98247.67;105375;1274;72900;-81
2022/09/29 04:31:09;;;;;;;11.60;6.40;;;;;;;6.54;99.19;98245.77;106259;1274;59869;-81
2022/09/29 04:33:58;;;;;;;12.80;7.30;;;;;;;6.48;99.12;98254.06;105463;1274;60235;-79
2022/09/29 04:36:46;;;;;;;11.00;6.80;;;;;;;6.42;99.37;98259.71;105095;1274;71871;-79
2022/09/29 04:39:34;;;;;;;12.00;7.20;;;;;;;6.38;99.60;98266.59;105404;1272;68019;-78
2022/09/29 04:42:23;;;;;;;12.90;6.60;;;;;;;6.35;99.81;98267.37;105000;1274;72680;-78
2022/09/29 04:45:11;;;;;;;12.20;7.30;;;;;;;6.34;100.00;98272.19;105149;1274;60028;-79
2022/09/29 04:48:00;;;;;;;12.50;7.00;;;;;;;6.35;100.00;98273.91;105176;1274;60269;-78
2022/09/29 04:50:50;;;;;;;12.90;7.50;;;;;;;6.37;100.00;98274.94;105158;1274;74330;-78
2022/09/29 04:53:38;;;;;;;13.60;7.10;;;;;;;6.40;100.00;98272.21;104880;1274;67942;-78
2022/09/29 04:56:30;;;;;;;14.40;7.70;;;;;;;6.43;100.00;98272.59;104915;1274;72284;-78
2022/09/29 04:59:19;;;;;;;14.30;7.70;;;;;;;6.50;100.00;98281.91;105144;1274;59739;-78
2022/09/29 05:02:07;;;;;;;13.40;7.90;;;;;;;6.55;100.00;98282.67;105270;1274;60846;-78
2022/09/29 05:04:58;;;;;;;12.10;6.30;;;;;;;6.59;100.00;98281.44;105049;1274;74183;-77
2022/09/29 05:07:47;;;;;;;14.80;7.50;;;;;;;6.62;100.00;98282.75;105194;1273;69201;-78
2022/09/29 05:10:35;;;;;;;14.80;7.80;;;;;;;6.64;100.00;98282.75;105107;1273;72660;-76
2022/09/29 05:13:24;;;;;;;14.40;8.00;;;;;;;6.67;100.00;98280.52;104148;1274;1003077;-79
2022/09/29 05:16:12;;;;;;;13.50;8.10;;;;;;;6.69;100.00;98281.98;104869;1273;60598;-78
2022/09/29 05:19:00;;;;;;;14.20;8.40;;;;;;;6.69;99.88;98285.80;104989;1274;71932;-80
2022/09/29 05:21:49;;;;;;;13.00;6.70;;;;;;;6.70;99.76;98282.72;104731;1274;67886;-77
2022/09/29 05:24:37;;;;;;;11.60;7.10;;;;;;;6.70;99.66;98285.58;104882;1274;72513;-79
2022/09/29 05:27:26;;;;;;;14.40;7.60;;;;;;;6.70;99.68;98283.48;104975;1274;59814;-82
2022/09/29 05:30:14;;;;;;;14.20;7.40;;;;;;;6.72;99.82;98286.78;105433;1274;59595;-79
2022/09/29 05:33:02;;;;;;;11.90;6.50;;;;;;;6.75;99.79;98285.61;104859;1274;73363;-79
2022/09/29 05:35:50;;;;;;;15.60;7.10;;;;;;;6.78;99.45;98288.03;104994;1273;65632;-80
2022/09/29 05:38:39;;;;;;;11.30;6.30;;;;;;;6.82;99.53;98287.45;104907;1274;71965;-81
2022/09/29 05:41:28;;;;;;;12.10;6.80;;;;;;;6.86;99.34;98290.29;104873;1274;59795;-78
2022/09/29 05:44:16;;;;;;;12.60;6.60;;;;;;;6.92;99.35;98292.56;104944;1273;60385;-80
2022/09/29 05:47:05;;;;;;;11.60;6.40;;;;;;;6.99;99.09;98293.52;105042;1273;72305;-79
2022/09/29 05:49:53;;;;;;;13.90;6.80;;;;;;;7.09;98.86;98296.69;105063;1274;67982;-81
2022/09/29 05:52:41;;;;;;;11.70;6.50;;;;;;;7.17;98.45;98300.52;104920;1273;72970;-80
2022/09/29 05:55:29;;;;;;;11.00;6.50;;;;;;;7.27;98.21;98296.45;104913;1274;59791;-79
2022/09/29 05:58:18;;;;;;;11.80;6.30;;;;;;;7.38;97.62;98302.70;104992;1273;59602;-78
2022/09/29 06:01:10;;;;;;;13.90;7.30;;;;;;;7.47;97.23;98301.67;104832;1273;71662;-79
2022/09/29 06:03:58;;;;;;;12.20;6.20;;;;;;;7.56;97.20;98302.11;104978;1274;66263;-79
2022/09/29 06:06:47;;;;;;;12.80;6.90;;;;;;;7.65;96.65;98302.66;104994;1273;73126;-77
2022/09/29 06:09:35;;;;;;;10.90;6.10;;;;;;;7.75;96.64;98304.52;105023;1273;59709;-78
2022/09/29 06:12:23;;;;;;;12.50;5.80;;;;;;;7.87;96.36;98311.17;105235;1274;59663;-77
2022/09/29 06:15:14;;;;;;;11.10;5.60;;;;;;;8.01;95.95;98311.14;104981;1274;74255;-78
2022/09/29 06:18:02;;;;;;;10.20;5.40;;;;;;;8.23;95.56;98311.66;105092;1274;68084;-78
2022/09/29 06:20:50;;;;;;;11.50;5.20;;;;;;;8.54;94.58;98310.48;105080;1274;72722;-77
2022/09/29 06:23:38;;;;;;;9.00;4.60;;;;;;;8.91;93.54;98310.39;105189;1274;59700;-79
2022/09/29 06:26:27;;;;;;;11.00;5.60;;;;;;;9.26;92.37;98311.98;105127;1274;59564;-79
2022/09/29 06:29:15;;;;;;;19.60;9.80;;;;;;;9.55;92.06;98319.29;105037;1274;74949;-78
2022/09/29 06:32:03;;;;;;;11.50;5.60;;;;;;;9.76;90.61;98316.80;105001;1274;68405;-78
2022/09/29 06:37:58;;;;;;;10.50;5.30;;;;;;;10.06;87.94;98321.98;105065;1274;60127;-78
2022/09/29 06:40:46;;;;;;;9.30;4.40;;;;;;;10.20;86.93;98322.47;104945;1274;61807;-78
2022/09/29 06:43:35;;;;;;;9.30;4.10;;;;;;;10.38;86.97;98323.30;105177;1272;73672;-80
2022/09/29 06:46:25;;;;;;;9.30;4.40;;;;;;;10.58;86.59;98326.69;104844;1274;65910;-79
2022/09/29 06:49:15;;;;;;;10.70;4.40;;;;;;;10.79;86.25;98329.22;104990;1274;71667;-78
2022/09/29 06:52:03;;;;;;;11.80;4.80;;;;;;;10.99;85.38;98331.21;104995;1274;59614;-78
2022/09/29 06:55:06;;;;;;;9.10;4.30;;;;;;;11.15;84.22;98336.05;105323;1273;59568;-79
2022/09/29 06:57:55;;;;;;;10.60;4.40;;;;;;;11.26;83.12;98330.13;107125;1274;71733;-79
2022/09/29 07:00:50;;;;;;;8.90;4.20;;;;;;;11.39;82.63;98335.39;105695;1274;67358;-82
2022/09/29 07:03:40;;;;;;;7.90;3.90;;;;;;;11.52;80.94;98334.08;104889;1274;74733;-79
2022/09/29 07:06:29;;;;;;;7.40;3.30;;;;;;;11.68;81.36;98336.17;105016;1273;59880;-79
2022/09/29 07:09:19;;;;;;;8.40;3.80;;;;;;;11.84;79.57;98334.79;104913;1274;61147;-79
2022/09/29 07:12:07;;;;;;;8.50;4.10;;;;;;;12.24;78.58;98336.30;105102;1274;71914;-79
2022/09/29 07:14:56;;;;;;;8.80;3.80;;;;;;;13.21;76.63;98340.59;105551;1274;67575;-78
2022/09/29 07:17:44;;;;;;;7.50;3.30;;;;;;;14.12;72.52;98338.91;105441;1274;73229;-80
2022/09/29 07:20:34;;;;;;;7.20;3.30;;;;;;;13.90;69.40;98339.89;104832;1274;59775;-80
2022/09/29 07:23:23;;;;;;;7.90;3.40;;;;;;;13.89;69.49;98342.70;104774;1274;59727;-79
2022/09/29 07:26:15;;;;;;;7.90;3.40;;;;;;;15.37;65.02;98336.99;105145;1274;74653;-79
2022/09/29 07:29:03;;;;;;;8.20;3.70;;;;;;;17.02;60.21;98334.42;105158;1274;67751;-79
2022/09/29 07:31:54;;;;;;;8.70;4.00;;;;;;;18.13;54.02;98337.80;104976;1274;72615;-79
2022/09/29 07:34:46;;;;;;;8.60;3.90;;;;;;;19.33;52.64;98337.17;104869;1274;59756;-78
2022/09/29 07:37:34;;;;;;;13.10;7.70;;;;;;;20.45;48.56;98340.42;105176;1274;60285;-78
2022/09/29 07:40:24;;;;;;;9.60;4.20;;;;;;;21.56;45.74;98342.58;105248;1274;73457;-77
2022/09/29 07:43:12;;;;;;;9.00;4.40;;;;;;;22.41;42.81;98344.52;104871;1275;66850;-79
2022/09/29 07:46:01;;;;;;;8.90;4.20;;;;;;;22.75;40.58;98345.67;105394;1272;71589;-77
2022/09/29 07:48:50;;;;;;;8.20;4.00;;;;;;;23.01;40.17;98350.09;104954;1274;59979;-78
2022/09/29 07:51:38;;;;;;;7.20;3.60;;;;;;;23.13;39.25;98349.55;105123;1273;60991;-78
2022/09/29 07:54:26;;;;;;;8.60;3.60;;;;;;;23.80;39.05;98347.08;105361;1273;71730;-78
2022/09/29 07:57:16;;;;;;;8.00;3.80;;;;;;;24.02;37.44;98344.55;104842;1274;66539;-78
2022/09/29 08:00:06;;;;;;;8.30;3.60;;;;;;;23.89;36.66;98354.78;104996;1274;72670;-77
2022/09/29 08:03:03;;;;;;;8.50;3.70;;;;;;;24.09;36.47;98355.30;104884;1274;59628;-78
2022/09/29 08:05:52;;;;;;;7.70;3.60;;;;;;;24.21;36.08;98354.45;104926;1273;59653;-78
2022/09/29 08:08:42;;;;;;;8.20;3.70;;;;;;;24.26;36.08;98353.10;104987;1273;72466;-78
2022/09/29 08:11:46;;;;;;;8.90;4.30;;;;;;;23.79;36.55;98363.23;105260;1274;68509;-78
2022/09/29 08:14:41;;;;;;;9.10;4.20;;;;;;;23.34;37.78;98372.73;105060;1272;72934;-79
2022/09/29 08:17:31;;;;;;;9.00;4.50;;;;;;;23.80;36.67;98368.26;105061;1274;59619;-80
2022/09/29 08:20:23;;;;;;;7.50;3.80;;;;;;;24.37;36.32;98375.04;104912;1274;59643;-79
2022/09/29 08:23:11;;;;;;;7.30;3.60;;;;;;;24.98;35.37;98379.65;104970;1274;70872;-78
2022/09/29 08:26:09;;;;;;;8.10;3.90;;;;;;;24.62;35.51;98388.23;104767;1275;66847;-79
2022/09/29 08:28:58;;;;;;;9.00;3.80;;;;;;;25.59;33.87;98387.11;104853;1277;72651;-79
2022/09/29 08:31:55;;;;;;;7.30;3.70;;;;;;;26.22;32.79;98388.28;104550;1277;59739;-79
2022/09/29 08:34:46;;;;;;;7.90;4.00;;;;;;;26.53;31.95;98386.84;104922;1277;60364;-77
2022/09/29 08:37:35;;;;;;;7.90;4.00;;;;;;;25.86;32.38;98396.60;104766;1276;72101;-77
2022/09/29 08:40:29;;;;;;;9.10;3.90;;;;;;;24.82;34.26;98401.65;104576;1277;67293;-76
2022/09/29 08:43:44;;;;;;;8.00;4.00;;;;;;;24.07;34.81;98409.77;104955;1277;71520;-76
2022/09/29 08:46:47;;;;;;;7.90;4.10;;;;;;;21.49;38.99;98416.18;104841;1277;59789;-78
2022/09/29 08:50:23;;;;;;;9.50;4.40;;;;;;;19.84;43.02;98417.23;104713;1277;59767;-79
2022/09/29 08:53:20;;;;;;;9.40;4.70;;;;;;;18.84;45.68;98424.26;104973;1277;74038;-77
2022/09/29 08:56:17;;;;;;;9.50;5.00;;;;;;;18.15;47.74;98423.02;104701;1277;66075;-76
2022/09/29 08:59:10;;;;;;;10.30;4.80;;;;;;;17.50;49.66;98425.46;104862;1277;74374;-77
2022/09/29 09:02:46;;;;;;;9.10;4.20;;;;;;;17.30;50.81;98428.20;104952;1274;59576;-76
2022/09/29 09:05:57;;;;;;;10.80;4.90;;;;;;;16.96;51.92;98431.13;105053;1277;59638;-77
2022/09/29 09:09:08;;;;;;;8.20;4.40;;;;;;;16.65;52.77;98431.70;104913;1277;73173;-78
2022/09/29 09:12:23;;;;;;;8.70;4.40;;;;;;;16.34;53.75;98434.11;104696;1277;66484;-78
2022/09/29 09:15:56;;;;;;;9.20;4.90;;;;;;;17.44;51.75;98435.39;105556;1277;71788;-76
2022/09/29 09:19:06;;;;;;;10.70;4.60;;;;;;;18.97;47.58;98438.73;104796;1277;59713;-77
2022/09/29 09:22:49;;;;;;;8.60;4.90;;;;;;;20.33;44.50;98432.73;105144;1277;59755;-78
2022/09/29 09:25:51;;;;;;;8.50;4.30;;;;;;;20.92;42.16;98436.02;105386;1277;72305;-75
2022/09/29 09:29:12;;;;;;;8.00;4.00;;;;;;;20.25;43.13;98442.31;104967;1277;66604;-80
2022/09/29 09:32:13;;;;;;;9.10;4.10;;;;;;;20.10;43.55;98442.29;104533;1281;74468;-77
2022/09/29 09:35:52;;;;;;;9.20;4.80;;;;;;;19.62;43.85;98443.60;104362;1281;59727;-76
2022/09/29 09:39:14;;;;;;;9.10;4.70;;;;;;;18.77;45.61;98451.11;104452;1281;60502;-78
2022/09/29 09:42:14;;;;;;;9.10;4.90;;;;;;;18.19;47.37;98453.73;104558;1285;71966;-78
2022/09/29 09:45:36;;;;;;;9.30;4.90;;;;;;;18.22;48.03;98455.67;104115;1284;68159;-78
2022/09/29 09:48:41;;;;;;;8.50;4.90;;;;;;;19.09;47.15;98459.38;104237;1284;74663;-78
2022/09/29 09:51:50;;;;;;;8.70;4.10;;;;;;;20.41;43.69;98457.21;104056;1284;59812;-78
2022/09/29 09:54:45;;;;;;;8.80;4.20;;;;;;;20.40;42.99;98459.98;104274;1284;61589;-80
2022/09/29 09:58:22;;;;;;;8.70;4.20;;;;;;;19.41;43.99;98471.06;104158;1286;72034;-81
2022/09/29 10:01:11;;;;;;;7.30;3.50;;;;;;;21.06;42.18;98463.70;105240;1284;68090;-77
2022/09/29 10:04:00;;;;;;;7.00;3.40;;;;;;;22.84;38.46;98464.98;104158;1285;72638;-77
2022/09/29 10:06:50;;;;;;;8.10;3.90;;;;;;;23.04;37.21;98469.91;103988;1286;59895;-80
2022/09/29 10:09:38;;;;;;;7.60;3.40;;;;;;;22.53;37.20;98475.57;104668;1281;60394;-79
2022/09/29 10:12:26;;;;;;;7.50;3.20;;;;;;;21.78;38.08;98484.27;104416;1280;73607;-77
2022/09/29 10:15:36;;;;;;;7.70;3.90;;;;;;;20.65;39.99;98486.30;104148;1283;66567;-80
2022/09/29 10:18:35;;;;;;;9.50;3.80;;;;;;;19.99;41.77;98492.92;104489;1277;72676;-80
2022/09/29 10:21:43;;;;;;;7.60;3.20;;;;;;;20.05;42.04;98491.26;105344;1274;59541;-79
2022/09/29 10:24:31;;;;;;;8.30;3.80;;;;;;;19.00;43.76;98495.16;105419;1274;60252;-74
2022/09/29 10:27:24;;;;;;;8.00;4.20;;;;;;;18.96;44.98;98495.75;105374;1274;73327;-77
2022/09/29 10:30:36;;;;;;;10.50;3.90;;;;;;;19.45;44.13;98496.42;105105;1274;69104;-75
2022/09/29 10:33:25;;;;;;;8.40;3.70;;;;;;;19.06;44.19;98499.21;104701;1279;73289;-80
2022/09/29 10:36:14;;;;;;;8.30;3.70;;;;;;;18.03;46.05;98499.52;104764;1279;59703;-77
2022/09/29 10:39:02;;;;;;;8.20;4.00;;;;;;;17.42;47.71;98506.57;104606;1281;59714;-79
2022/09/29 10:41:53;;;;;;;7.80;3.50;;;;;;;17.55;48.08;98508.34;104359;1281;71983;-79
2022/09/29 10:44:48;;;;;;;8.00;3.40;;;;;;;17.41;48.49;98508.36;104401;1281;68034;-79
2022/09/29 10:47:37;;;;;;;7.60;3.60;;;;;;;17.20;48.87;98507.80;104793;1280;72667;-78
2022/09/29 10:51:01;;;;;;;8.30;4.30;;;;;;;17.25;48.40;98509.80;104434;1281;59829;-78
2022/09/29 10:53:49;;;;;;;7.40;3.80;;;;;;;18.01;47.00;98510.30;104529;1281;61400;-75
2022/09/29 10:56:47;;;;;;;8.10;3.80;;;;;;;19.76;43.68;98503.39;104676;1283;73059;-73
2022/09/29 10:59:44;;;;;;;7.30;3.50;;;;;;;21.31;40.32;98506.89;104619;1283;69181;-75
2022/09/29 11:02:38;;;;;;;6.80;2.90;;;;;;;21.89;38.87;98514.51;104465;1284;74163;-78
2022/09/29 11:05:27;;;;;;;5.90;2.60;;;;;;;22.82;36.34;98515.39;104888;1283;59891;-79
2022/09/29 11:08:15;;;;;;;6.40;2.70;;;;;;;23.46;35.25;98516.86;106169;1285;59662;-76
2022/09/29 11:11:23;;;;;;;6.30;2.80;;;;;;;22.79;36.34;98522.02;107006;1274;71955;-78
2022/09/29 11:14:36;;;;;;;11.00;3.20;;;;;;;22.01;37.72;98527.40;106472;1275;67907;-76
2022/09/29 11:17:37;;;;;;;7.40;2.90;;;;;;;21.26;39.35;98529.50;105967;1277;70685;-77
2022/09/29 11:20:31;;;;;;;7.60;3.50;;;;;;;21.06;39.00;98532.22;104991;1277;59720;-76
2022/09/29 11:23:28;;;;;;;8.50;3.10;;;;;;;21.35;39.22;98533.35;104872;1277;60277;-77
2022/09/29 11:26:53;;;;;;;7.00;3.40;;;;;;;21.80;38.56;98529.30;104856;1278;73101;-76
2022/09/29 11:29:49;;;;;;;7.40;3.60;;;;;;;22.20;38.01;98541.87;105074;1277;67800;-77
2022/09/29 11:33:04;;;;;;;8.50;3.90;;;;;;;21.84;38.90;98539.90;104811;1277;71790;-76
2022/09/29 11:36:03;;;;;;;7.70;3.40;;;;;;;22.34;37.37;98547.26;104974;1274;59682;-76
2022/09/29 11:39:11;;;;;;;6.20;2.50;;;;;;;22.57;36.37;98546.54;105192;1274;59810;-77
2022/09/29 11:42:32;;;;;;;7.40;3.30;;;;;;;22.64;36.61;98550.73;105267;1272;73085;-76
2022/09/29 11:45:30;;;;;;;8.00;3.10;;;;;;;22.55;36.52;98551.85;105123;1274;68025;-74
2022/09/29 11:48:38;;;;;;;7.00;2.80;;;;;;;22.16;37.28;98558.45;105036;1274;72882;-77
2022/09/29 11:51:49;;;;;;;6.10;2.20;;;;;;;21.62;37.85;98560.65;105347;1272;59739;-77
2022/09/29 11:54:56;;;;;;;5.90;2.10;;;;;;;21.90;37.34;98558.48;105231;1274;60266;-77
2022/09/29 11:58:26;;;;;;;6.40;2.60;;;;;;;21.56;37.96;98562.45;105233;1274;73101;-76
2022/09/29 12:01:34;;;;;;;6.90;2.50;;;;;;;21.29;38.29;98563.73;104505;1279;68426;-77
2022/09/29 12:04:38;;;;;;;5.90;2.10;;;;;;;21.26;38.21;98562.30;104738;1281;73099;-77
2022/09/29 12:08:23;;;;;;;6.10;2.40;;;;;;;20.82;38.65;98567.29;104673;1278;59719;-76
2022/09/29 12:11:20;;;;;;;6.10;2.30;;;;;;;19.92;39.47;98572.63;104317;1284;59669;-76
2022/09/29 12:14:42;;;;;;;6.70;2.60;;;;;;;19.27;41.33;98571.48;104233;1283;73015;-76
2022/09/29 12:17:40;;;;;;;7.00;2.20;;;;;;;18.65;42.38;98576.73;104511;1284;67841;-74
2022/09/29 12:20:34;;;;;;;7.20;2.30;;;;;;;18.25;43.33;98579.36;104552;1283;72069;-81
2022/09/29 12:23:27;;;;;;;6.30;2.10;;;;;;;18.01;44.30;98579.57;103955;1284;59795;-82
2022/09/29 12:26:21;;;;;;;7.20;2.60;;;;;;;17.77;44.78;98576.27;103899;1284;59881;-76
2022/09/29 12:29:28;;;;;;;8.00;2.70;;;;;;;17.44;45.54;98579.63;104339;1283;70707;-77
2022/09/29 12:32:27;;;;;;;7.40;2.50;;;;;;;16.81;47.40;98582.89;104326;1284;69621;-78
2022/09/29 12:35:36;;;;;;;6.40;2.60;;;;;;;16.37;48.83;98588.17;104450;1283;73964;-78
2022/09/29 12:38:44;;;;;;;11.80;5.20;;;;;;;15.87;50.05;98594.20;104618;1281;59862;-83
2022/09/29 12:41:41;;;;;;;7.90;3.10;;;;;;;15.54;50.34;98598.17;104774;1281;59725;-79
2022/09/29 12:44:56;;;;;;;6.40;2.70;;;;;;;15.30;51.44;98599.46;104582;1280;71950;-75
2022/09/29 12:48:11;;;;;;;6.40;2.50;;;;;;;15.08;52.61;98596.39;104897;1273;69670;-77
2022/09/29 12:51:13;;;;;;;6.40;2.40;;;;;;;14.94;53.24;98598.55;105149;1274;72067;-76
2022/09/29 12:54:31;;;;;;;6.50;2.50;;;;;;;14.80;53.86;98607.77;105292;1274;59847;-76
2022/09/29 12:57:27;;;;;;;6.40;2.40;;;;;;;14.59;54.92;98610.25;105319;1274;59580;-78
2022/09/29 13:00:17;;;;;;;6.60;2.60;;;;;;;14.39;55.94;98610.96;105562;1274;74395;-79
2022/09/29 13:03:32;;;;;;;6.90;2.40;;;;;;;14.37;56.60;98610.98;107009;1274;66488;-78
2022/09/29 13:06:44;;;;;;;6.50;2.60;;;;;;;14.45;56.84;98610.22;105393;1274;72142;-76
2022/09/29 13:10:08;;;;;;;6.20;2.40;;;;;;;14.54;56.79;98609.30;105357;1274;59614;-80
2022/09/29 13:13:45;;;;;;;6.50;2.20;;;;;;;14.73;55.86;98608.92;104766;1274;564900;-78
2022/09/29 13:17:04;;;;;;;5.90;2.20;;;;;;;14.71;55.01;98610.99;104937;1274;73268;-78
2022/09/29 13:19:54;;;;;;;6.30;1.90;;;;;;;14.62;54.42;98613.23;105089;1274;70020;-79
2022/09/29 13:23:10;;;;;;;7.00;2.50;;;;;;;14.59;54.63;98614.33;105281;1274;73413;-78
2022/09/29 13:26:12;;;;;;;6.00;2.10;;;;;;;14.54;55.22;98620.45;105215;1273;59755;-77
2022/09/29 13:29:13;;;;;;;7.50;2.30;;;;;;;14.47;55.95;98623.55;105457;1274;59615;-78
2022/09/29 13:32:02;;;;;;;6.20;2.40;;;;;;;14.25;56.06;98625.35;104898;1274;73317;-79
2022/09/29 13:35:01;;;;;;;6.50;2.50;;;;;;;14.12;56.66;98624.66;104783;1274;67168;-78
2022/09/29 13:38:05;;;;;;;5.70;2.30;;;;;;;14.06;57.19;98628.96;105041;1273;71729;-79
2022/09/29 13:41:33;;;;;;;7.10;2.60;;;;;;;14.06;57.99;98628.89;105158;1273;59818;-77
2022/09/29 13:44:27;;;;;;;6.10;2.20;;;;;;;14.16;58.41;98627.90;104733;1275;60314;-78